sensor_id;sensor_type;location;lat;lon;timestamp;temperature;humidity
1107;DHT22;540;49.448;8.612;2023-05-27T00:01:12;18.20;50.10
1107;DHT22;540;49.448;8.612;2023-05-27T00:03:40;17.90;49.50
1107;DHT22;540;49.448;8.612;2023-05-27T00:06:08;17.90;49.90
1107;DHT22;540;49.448;8.612;2023-05-27T00:08:36;17.50;51.20
1107;DHT22;540;49.448;8.612;2023-05-27T00:11:04;17.70;52.10
1107;DHT22;540;49.448;8.612;2023-05-27T00:13:32;17.60;52.40
1107;DHT22;540;49.448;8.612;2023-05-27T00:15:59;17.80;52.80
1107;DHT22;540;49.448;8.612;2023-05-27T00:18:29;17.60;52.90
1107;DHT22;540;49.448;8.612;2023-05-27T00:20:59;17.50;52.90
1107;DHT22;540;49.448;8.612;2023-05-27T00:23:27;17.10;53.00
1107;DHT22;540;49.448;8.612;2023-05-27T00:25:55;17.10;53.10
1107;DHT22;540;49.448;8.612;2023-05-27T00:28:22;17.40;53.70
1107;DHT22;540;49.448;8.612;2023-05-27T00:30:50;17.20;53.40
1107;DHT22;540;49.448;8.612;2023-05-27T00:33:18;17.70;53.50
1107;DHT22;540;49.448;8.612;2023-05-27T00:35:47;17.00;53.30
1107;DHT22;540;49.448;8.612;2023-05-27T00:38:15;17.20;52.50
1107;DHT22;540;49.448;8.612;2023-05-27T00:40:43;17.40;53.10
1107;DHT22;540;49.448;8.612;2023-05-27T00:43:12;17.60;52.60
1107;DHT22;540;49.448;8.612;2023-05-27T00:45:39;17.40;52.20
1107;DHT22;540;49.448;8.612;2023-05-27T00:48:07;17.50;52.50
1107;DHT22;540;49.448;8.612;2023-05-27T00:50:36;17.40;52.70
1107;DHT22;540;49.448;8.612;2023-05-27T00:53:05;17.30;52.80
1107;DHT22;540;49.448;8.612;2023-05-27T00:55:33;17.20;52.60
1107;DHT22;540;49.448;8.612;2023-05-27T00:58:02;17.40;53.00
1107;DHT22;540;49.448;8.612;2023-05-27T01:00:30;16.70;53.10
1107;DHT22;540;49.448;8.612;2023-05-27T01:02:58;17.20;53.80
1107;DHT22;540;49.448;8.612;2023-05-27T01:05:26;17.20;54.00
1107;DHT22;540;49.448;8.612;2023-05-27T01:08:07;17.20;54.00
1107;DHT22;540;49.448;8.612;2023-05-27T01:10:41;17.40;54.50
1107;DHT22;540;49.448;8.612;2023-05-27T01:13:14;17.20;53.50
1107;DHT22;540;49.448;8.612;2023-05-27T01:15:44;16.90;53.40
1107;DHT22;540;49.448;8.612;2023-05-27T01:18:16;16.90;53.30
1107;DHT22;540;49.448;8.612;2023-05-27T01:20:47;16.90;53.40
1107;DHT22;540;49.448;8.612;2023-05-27T01:23:17;16.60;53.50
1107;DHT22;540;49.448;8.612;2023-05-27T01:25:45;17.00;53.60
1107;DHT22;540;49.448;8.612;2023-05-27T01:28:12;16.40;53.50
1107;DHT22;540;49.448;8.612;2023-05-27T01:30:40;16.70;54.00
1107;DHT22;540;49.448;8.612;2023-05-27T01:33:10;16.80;54.30
1107;DHT22;540;49.448;8.612;2023-05-27T01:35:42;16.80;54.30
1107;DHT22;540;49.448;8.612;2023-05-27T01:38:13;16.70;54.30
1107;DHT22;540;49.448;8.612;2023-05-27T01:40:44;16.30;54.00
1107;DHT22;540;49.448;8.612;2023-05-27T01:43:13;16.40;54.00
1107;DHT22;540;49.448;8.612;2023-05-27T01:45:42;16.70;54.20
1107;DHT22;540;49.448;8.612;2023-05-27T01:48:10;16.60;53.70
1107;DHT22;540;49.448;8.612;2023-05-27T01:50:38;16.40;54.00
1107;DHT22;540;49.448;8.612;2023-05-27T01:53:06;16.90;54.70
1107;DHT22;540;49.448;8.612;2023-05-27T01:55:34;16.50;53.70
1107;DHT22;540;49.448;8.612;2023-05-27T01:58:04;16.50;53.50
1107;DHT22;540;49.448;8.612;2023-05-27T02:00:31;16.40;53.30
1107;DHT22;540;49.448;8.612;2023-05-27T02:02:59;16.10;52.90
1107;DHT22;540;49.448;8.612;2023-05-27T02:05:27;16.70;53.60
1107;DHT22;540;49.448;8.612;2023-05-27T02:07:55;16.40;53.60
1107;DHT22;540;49.448;8.612;2023-05-27T02:10:23;16.30;53.50
1107;DHT22;540;49.448;8.612;2023-05-27T02:12:51;16.50;53.50
1107;DHT22;540;49.448;8.612;2023-05-27T02:15:20;16.30;53.50
1107;DHT22;540;49.448;8.612;2023-05-27T02:17:50;16.40;53.60
1107;DHT22;540;49.448;8.612;2023-05-27T02:20:21;16.00;53.10
1107;DHT22;540;49.448;8.612;2023-05-27T02:22:50;16.20;53.20
1107;DHT22;540;49.448;8.612;2023-05-27T02:25:18;16.50;53.70
1107;DHT22;540;49.448;8.612;2023-05-27T02:27:46;16.20;53.50
1107;DHT22;540;49.448;8.612;2023-05-27T02:30:15;16.30;54.20
1107;DHT22;540;49.448;8.612;2023-05-27T02:32:44;16.20;54.70
1107;DHT22;540;49.448;8.612;2023-05-27T02:35:13;16.30;55.30
1107;DHT22;540;49.448;8.612;2023-05-27T02:37:42;16.10;55.50
1107;DHT22;540;49.448;8.612;2023-05-27T02:40:10;15.80;55.30
1107;DHT22;540;49.448;8.612;2023-05-27T02:42:38;16.00;55.60
1107;DHT22;540;49.448;8.612;2023-05-27T02:45:07;16.10;55.70
1107;DHT22;540;49.448;8.612;2023-05-27T02:47:35;15.70;56.10
1107;DHT22;540;49.448;8.612;2023-05-27T02:50:05;16.00;56.50
1107;DHT22;540;49.448;8.612;2023-05-27T02:52:33;16.00;56.20
1107;DHT22;540;49.448;8.612;2023-05-27T02:55:01;15.70;55.60
1107;DHT22;540;49.448;8.612;2023-05-27T02:57:29;15.90;55.20
1107;DHT22;540;49.448;8.612;2023-05-27T02:59:57;15.90;54.60
1107;DHT22;540;49.448;8.612;2023-05-27T03:02:25;15.80;54.70
1107;DHT22;540;49.448;8.612;2023-05-27T03:04:53;15.80;55.20
1107;DHT22;540;49.448;8.612;2023-05-27T03:07:23;16.00;55.40
1107;DHT22;540;49.448;8.612;2023-05-27T03:09:51;15.60;55.10
1107;DHT22;540;49.448;8.612;2023-05-27T03:12:18;15.60;55.20
1107;DHT22;540;49.448;8.612;2023-05-27T03:14:46;15.90;55.30
1107;DHT22;540;49.448;8.612;2023-05-27T03:17:14;15.60;55.20
1107;DHT22;540;49.448;8.612;2023-05-27T03:19:42;15.60;55.60
1107;DHT22;540;49.448;8.612;2023-05-27T03:22:10;15.70;55.90
1107;DHT22;540;49.448;8.612;2023-05-27T03:24:39;15.70;55.40
1107;DHT22;540;49.448;8.612;2023-05-27T03:27:08;15.60;55.20
1107;DHT22;540;49.448;8.612;2023-05-27T03:29:36;15.80;54.80
1107;DHT22;540;49.448;8.612;2023-05-27T03:32:04;15.80;54.90
1107;DHT22;540;49.448;8.612;2023-05-27T03:34:32;15.50;56.00
1107;DHT22;540;49.448;8.612;2023-05-27T03:37:00;15.80;57.00
1107;DHT22;540;49.448;8.612;2023-05-27T03:39:28;15.50;55.80
1107;DHT22;540;49.448;8.612;2023-05-27T03:41:57;15.70;54.10
1107;DHT22;540;49.448;8.612;2023-05-27T03:44:25;15.80;53.50
1107;DHT22;540;49.448;8.612;2023-05-27T03:46:54;15.30;53.20
1107;DHT22;540;49.448;8.612;2023-05-27T03:49:22;15.80;53.20
1107;DHT22;540;49.448;8.612;2023-05-27T03:51:50;15.70;52.90
1107;DHT22;540;49.448;8.612;2023-05-27T03:54:18;15.60;52.80
1107;DHT22;540;49.448;8.612;2023-05-27T03:56:46;15.40;53.00
1107;DHT22;540;49.448;8.612;2023-05-27T03:59:15;15.90;53.20
1107;DHT22;540;49.448;8.612;2023-05-27T04:01:44;15.60;52.60
1107;DHT22;540;49.448;8.612;2023-05-27T04:04:13;16.00;52.60
1107;DHT22;540;49.448;8.612;2023-05-27T04:06:41;16.00;52.70
1107;DHT22;540;49.448;8.612;2023-05-27T04:09:09;15.80;52.60
1107;DHT22;540;49.448;8.612;2023-05-27T04:11:37;15.70;52.30
1107;DHT22;540;49.448;8.612;2023-05-27T04:14:05;15.80;52.70
1107;DHT22;540;49.448;8.612;2023-05-27T04:16:35;15.70;52.50
1107;DHT22;540;49.448;8.612;2023-05-27T04:19:03;15.70;52.10
1107;DHT22;540;49.448;8.612;2023-05-27T04:21:31;16.00;52.70
1107;DHT22;540;49.448;8.612;2023-05-27T04:23:59;15.90;51.90
1107;DHT22;540;49.448;8.612;2023-05-27T04:26:26;16.10;52.30
1107;DHT22;540;49.448;8.612;2023-05-27T04:28:56;15.80;52.00
1107;DHT22;540;49.448;8.612;2023-05-27T04:31:26;16.00;51.40
1107;DHT22;540;49.448;8.612;2023-05-27T04:33:57;16.00;51.80
1107;DHT22;540;49.448;8.612;2023-05-27T04:36:25;16.00;52.00
1107;DHT22;540;49.448;8.612;2023-05-27T04:38:59;15.90;51.60
1107;DHT22;540;49.448;8.612;2023-05-27T04:41:28;16.10;51.70
1107;DHT22;540;49.448;8.612;2023-05-27T04:43:56;16.00;51.60
1107;DHT22;540;49.448;8.612;2023-05-27T04:46:24;16.30;51.30
1107;DHT22;540;49.448;8.612;2023-05-27T04:48:53;16.20;51.30
1107;DHT22;540;49.448;8.612;2023-05-27T04:51:22;15.70;51.00
1107;DHT22;540;49.448;8.612;2023-05-27T04:53:50;16.30;51.50
1107;DHT22;540;49.448;8.612;2023-05-27T04:56:18;16.40;51.60
1107;DHT22;540;49.448;8.612;2023-05-27T04:58:46;16.40;51.90
1107;DHT22;540;49.448;8.612;2023-05-27T05:01:15;16.70;51.50
1107;DHT22;540;49.448;8.612;2023-05-27T05:03:48;16.40;50.80
1107;DHT22;540;49.448;8.612;2023-05-27T05:06:30;15.90;50.00
1107;DHT22;540;49.448;8.612;2023-05-27T05:08:58;16.90;50.30
1107;DHT22;540;49.448;8.612;2023-05-27T05:11:26;16.60;49.80
1107;DHT22;540;49.448;8.612;2023-05-27T05:13:54;17.00;49.70
1107;DHT22;540;49.448;8.612;2023-05-27T05:16:22;16.80;48.90
1107;DHT22;540;49.448;8.612;2023-05-27T05:18:50;17.00;49.50
1107;DHT22;540;49.448;8.612;2023-05-27T05:21:18;17.00;49.50
1107;DHT22;540;49.448;8.612;2023-05-27T05:23:47;16.90;49.10
1107;DHT22;540;49.448;8.612;2023-05-27T05:26:15;17.20;48.90
1107;DHT22;540;49.448;8.612;2023-05-27T05:28:42;17.00;48.70
1107;DHT22;540;49.448;8.612;2023-05-27T05:31:10;17.10;48.70
1107;DHT22;540;49.448;8.612;2023-05-27T05:33:38;17.60;49.40
1107;DHT22;540;49.448;8.612;2023-05-27T05:36:07;17.70;49.30
1107;DHT22;540;49.448;8.612;2023-05-27T05:38:35;18.00;49.00
1107;DHT22;540;49.448;8.612;2023-05-27T05:41:04;18.70;47.50
1107;DHT22;540;49.448;8.612;2023-05-27T05:43:32;19.60;45.40
1107;DHT22;540;49.448;8.612;2023-05-27T05:46:00;20.90;43.80
1107;DHT22;540;49.448;8.612;2023-05-27T05:48:28;21.60;41.70
1107;DHT22;540;49.448;8.612;2023-05-27T05:50:56;21.10;42.10
1107;DHT22;540;49.448;8.612;2023-05-27T05:53:24;20.40;43.30
1107;DHT22;540;49.448;8.612;2023-05-27T05:55:52;19.80;44.10
1107;DHT22;540;49.448;8.612;2023-05-27T05:58:22;19.90;44.70
1107;DHT22;540;49.448;8.612;2023-05-27T06:00:49;21.30;43.60
1107;DHT22;540;49.448;8.612;2023-05-27T06:03:18;23.10;41.10
1107;DHT22;540;49.448;8.612;2023-05-27T06:05:46;24.20;38.10
1107;DHT22;540;49.448;8.612;2023-05-27T06:08:14;24.80;36.70
1107;DHT22;540;49.448;8.612;2023-05-27T06:10:42;25.20;35.70
1107;DHT22;540;49.448;8.612;2023-05-27T06:13:10;25.80;34.80
1107;DHT22;540;49.448;8.612;2023-05-27T06:15:39;26.30;34.50
1107;DHT22;540;49.448;8.612;2023-05-27T06:18:07;26.40;33.20
1107;DHT22;540;49.448;8.612;2023-05-27T06:20:35;26.40;32.40
1107;DHT22;540;49.448;8.612;2023-05-27T06:23:03;26.90;32.10
1107;DHT22;540;49.448;8.612;2023-05-27T06:25:32;26.80;31.90
1107;DHT22;540;49.448;8.612;2023-05-27T06:28:00;26.90;31.80
1107;DHT22;540;49.448;8.612;2023-05-27T06:30:27;26.80;31.60
1107;DHT22;540;49.448;8.612;2023-05-27T06:32:57;27.00;31.80
1107;DHT22;540;49.448;8.612;2023-05-27T06:35:24;27.40;31.30
1107;DHT22;540;49.448;8.612;2023-05-27T06:37:52;27.40;30.70
1107;DHT22;540;49.448;8.612;2023-05-27T06:40:20;27.60;29.90
1107;DHT22;540;49.448;8.612;2023-05-27T06:42:48;27.70;30.00
1107;DHT22;540;49.448;8.612;2023-05-27T06:45:16;28.10;29.70
1107;DHT22;540;49.448;8.612;2023-05-27T06:47:44;28.30;29.20
1107;DHT22;540;49.448;8.612;2023-05-27T06:50:13;28.30;29.10
1107;DHT22;540;49.448;8.612;2023-05-27T06:52:41;28.50;28.70
1107;DHT22;540;49.448;8.612;2023-05-27T06:55:09;28.80;28.40
1107;DHT22;540;49.448;8.612;2023-05-27T06:57:37;28.90;27.90
1107;DHT22;540;49.448;8.612;2023-05-27T07:00:06;29.00;27.90
1107;DHT22;540;49.448;8.612;2023-05-27T07:02:34;29.00;28.00
1107;DHT22;540;49.448;8.612;2023-05-27T07:05:02;29.70;27.60
1107;DHT22;540;49.448;8.612;2023-05-27T07:07:32;29.90;27.10
1107;DHT22;540;49.448;8.612;2023-05-27T07:10:00;30.00;27.00
1107;DHT22;540;49.448;8.612;2023-05-27T07:12:27;29.90;26.60
1107;DHT22;540;49.448;8.612;2023-05-27T07:14:55;29.90;26.30
1107;DHT22;540;49.448;8.612;2023-05-27T07:17:23;30.10;26.00
1107;DHT22;540;49.448;8.612;2023-05-27T07:19:51;30.20;25.50
1107;DHT22;540;49.448;8.612;2023-05-27T07:22:19;30.50;25.50
1107;DHT22;540;49.448;8.612;2023-05-27T07:24:48;30.50;24.70
1107;DHT22;540;49.448;8.612;2023-05-27T07:27:16;30.30;25.10
1107;DHT22;540;49.448;8.612;2023-05-27T07:29:44;30.40;25.10
1107;DHT22;540;49.448;8.612;2023-05-27T07:32:12;30.60;25.30
1107;DHT22;540;49.448;8.612;2023-05-27T07:34:39;30.40;25.40
1107;DHT22;540;49.448;8.612;2023-05-27T07:37:08;30.60;25.00
1107;DHT22;540;49.448;8.612;2023-05-27T07:39:36;30.60;25.20
1107;DHT22;540;49.448;8.612;2023-05-27T07:42:06;30.40;24.50
1107;DHT22;540;49.448;8.612;2023-05-27T07:44:34;31.00;24.70
1107;DHT22;540;49.448;8.612;2023-05-27T07:47:02;31.20;24.50
1107;DHT22;540;49.448;8.612;2023-05-27T07:49:30;31.50;24.10
1107;DHT22;540;49.448;8.612;2023-05-27T07:51:57;32.00;23.70
1107;DHT22;540;49.448;8.612;2023-05-27T07:54:28;32.00;23.70
1107;DHT22;540;49.448;8.612;2023-05-27T07:56:58;32.00;23.40
1107;DHT22;540;49.448;8.612;2023-05-27T07:59:29;32.00;23.10
1107;DHT22;540;49.448;8.612;2023-05-27T08:01:57;32.50;22.90
1107;DHT22;540;49.448;8.612;2023-05-27T08:04:26;32.40;22.30
1107;DHT22;540;49.448;8.612;2023-05-27T08:06:56;32.50;22.30
1107;DHT22;540;49.448;8.612;2023-05-27T08:09:26;32.20;22.50
1107;DHT22;540;49.448;8.612;2023-05-27T08:11:56;31.70;22.90
1107;DHT22;540;49.448;8.612;2023-05-27T08:14:26;31.90;23.30
1107;DHT22;540;49.448;8.612;2023-05-27T08:16:58;31.80;23.50
1107;DHT22;540;49.448;8.612;2023-05-27T08:19:28;31.70;23.40
1107;DHT22;540;49.448;8.612;2023-05-27T08:21:59;31.20;23.80
1107;DHT22;540;49.448;8.612;2023-05-27T08:24:32;31.40;24.00
1107;DHT22;540;49.448;8.612;2023-05-27T08:27:02;31.60;24.50
1107;DHT22;540;49.448;8.612;2023-05-27T08:29:33;31.80;23.70
1107;DHT22;540;49.448;8.612;2023-05-27T08:32:05;32.10;23.30
1107;DHT22;540;49.448;8.612;2023-05-27T08:34:35;31.60;23.50
1107;DHT22;540;49.448;8.612;2023-05-27T08:37:05;31.60;24.20
1107;DHT22;540;49.448;8.612;2023-05-27T08:39:34;31.60;23.80
1107;DHT22;540;49.448;8.612;2023-05-27T08:42:04;31.60;23.50
1107;DHT22;540;49.448;8.612;2023-05-27T08:44:34;32.20;23.80
1107;DHT22;540;49.448;8.612;2023-05-27T08:47:06;32.30;23.40
1107;DHT22;540;49.448;8.612;2023-05-27T08:49:36;32.40;23.50
1107;DHT22;540;49.448;8.612;2023-05-27T08:52:06;32.30;23.40
1107;DHT22;540;49.448;8.612;2023-05-27T08:54:40;32.20;23.10
1107;DHT22;540;49.448;8.612;2023-05-27T08:57:12;31.90;23.30
1107;DHT22;540;49.448;8.612;2023-05-27T08:59:42;31.50;24.50
1107;DHT22;540;49.448;8.612;2023-05-27T09:02:12;31.10;24.50
1107;DHT22;540;49.448;8.612;2023-05-27T09:04:40;31.20;24.30
1107;DHT22;540;49.448;8.612;2023-05-27T09:07:08;31.70;24.10
1107;DHT22;540;49.448;8.612;2023-05-27T09:09:36;31.60;24.00
1107;DHT22;540;49.448;8.612;2023-05-27T09:12:05;31.50;24.20
1107;DHT22;540;49.448;8.612;2023-05-27T09:14:35;32.00;24.20
1107;DHT22;540;49.448;8.612;2023-05-27T09:17:07;31.80;23.70
1107;DHT22;540;49.448;8.612;2023-05-27T09:19:36;31.50;24.30
1107;DHT22;540;49.448;8.612;2023-05-27T09:22:04;31.50;24.70
1107;DHT22;540;49.448;8.612;2023-05-27T09:24:32;31.90;24.70
1107;DHT22;540;49.448;8.612;2023-05-27T09:27:00;31.90;24.90
1107;DHT22;540;49.448;8.612;2023-05-27T09:29:28;32.10;24.30
1107;DHT22;540;49.448;8.612;2023-05-27T09:31:56;31.90;24.60
1107;DHT22;540;49.448;8.612;2023-05-27T09:34:24;32.40;24.20
1107;DHT22;540;49.448;8.612;2023-05-27T09:36:57;32.30;24.10
1107;DHT22;540;49.448;8.612;2023-05-27T09:39:25;32.30;24.20
1107;DHT22;540;49.448;8.612;2023-05-27T09:41:54;32.20;24.30
1107;DHT22;540;49.448;8.612;2023-05-27T09:44:23;32.20;24.70
1107;DHT22;540;49.448;8.612;2023-05-27T09:46:54;32.30;24.70
1107;DHT22;540;49.448;8.612;2023-05-27T09:49:25;32.60;24.60
1107;DHT22;540;49.448;8.612;2023-05-27T09:51:54;32.50;24.30
1107;DHT22;540;49.448;8.612;2023-05-27T09:54:25;32.60;24.50
1107;DHT22;540;49.448;8.612;2023-05-27T09:56:53;32.10;25.20
1107;DHT22;540;49.448;8.612;2023-05-27T09:59:22;32.20;25.10
1107;DHT22;540;49.448;8.612;2023-05-27T10:01:50;32.20;25.00
1107;DHT22;540;49.448;8.612;2023-05-27T10:04:20;31.40;25.60
1107;DHT22;540;49.448;8.612;2023-05-27T10:06:48;31.00;26.20
1107;DHT22;540;49.448;8.612;2023-05-27T10:09:17;31.30;26.40
1107;DHT22;540;49.448;8.612;2023-05-27T10:11:47;31.40;25.90
1107;DHT22;540;49.448;8.612;2023-05-27T10:14:15;31.60;26.10
1107;DHT22;540;49.448;8.612;2023-05-27T10:16:52;31.50;26.30
1107;DHT22;540;49.448;8.612;2023-05-27T10:19:21;31.60;26.60
1107;DHT22;540;49.448;8.612;2023-05-27T10:21:53;31.40;26.60
1107;DHT22;540;49.448;8.612;2023-05-27T10:24:31;31.60;26.20
1107;DHT22;540;49.448;8.612;2023-05-27T10:27:01;31.00;26.70
1107;DHT22;540;49.448;8.612;2023-05-27T10:29:35;31.20;27.10
1107;DHT22;540;49.448;8.612;2023-05-27T10:32:04;29.90;27.80
1107;DHT22;540;49.448;8.612;2023-05-27T10:34:35;29.90;28.50
1107;DHT22;540;49.448;8.612;2023-05-27T10:37:03;30.10;28.20
1107;DHT22;540;49.448;8.612;2023-05-27T10:39:31;30.60;28.50
1107;DHT22;540;49.448;8.612;2023-05-27T10:42:01;30.70;28.40
1107;DHT22;540;49.448;8.612;2023-05-27T10:44:31;30.50;27.60
1107;DHT22;540;49.448;8.612;2023-05-27T10:47:00;30.40;28.00
1107;DHT22;540;49.448;8.612;2023-05-27T10:49:32;30.50;27.70
1107;DHT22;540;49.448;8.612;2023-05-27T10:52:05;29.60;28.20
1107;DHT22;540;49.448;8.612;2023-05-27T10:54:37;29.80;28.40
1107;DHT22;540;49.448;8.612;2023-05-27T10:57:06;30.00;28.70
1107;DHT22;540;49.448;8.612;2023-05-27T10:59:40;30.40;29.00
1107;DHT22;540;49.448;8.612;2023-05-27T11:02:08;30.50;29.00
1107;DHT22;540;49.448;8.612;2023-05-27T11:04:37;30.70;27.80
1107;DHT22;540;49.448;8.612;2023-05-27T11:07:05;30.70;27.50
1107;DHT22;540;49.448;8.612;2023-05-27T11:09:42;30.20;28.30
1107;DHT22;540;49.448;8.612;2023-05-27T11:12:14;30.00;27.20
1107;DHT22;540;49.448;8.612;2023-05-27T11:14:44;30.20;27.60
1107;DHT22;540;49.448;8.612;2023-05-27T11:17:12;29.80;27.70
1107;DHT22;540;49.448;8.612;2023-05-27T11:19:41;29.60;27.90
1107;DHT22;540;49.448;8.612;2023-05-27T11:22:10;29.40;28.00
1107;DHT22;540;49.448;8.612;2023-05-27T11:24:38;29.40;28.40
1107;DHT22;540;49.448;8.612;2023-05-27T11:27:11;29.00;28.30
1107;DHT22;540;49.448;8.612;2023-05-27T11:29:50;29.10;28.70
1107;DHT22;540;49.448;8.612;2023-05-27T11:32:19;29.50;28.20
1107;DHT22;540;49.448;8.612;2023-05-27T11:34:47;29.80;27.90
1107;DHT22;540;49.448;8.612;2023-05-27T11:37:15;29.60;27.30
1107;DHT22;540;49.448;8.612;2023-05-27T11:39:50;29.60;27.90
1107;DHT22;540;49.448;8.612;2023-05-27T11:42:21;29.80;28.30
1107;DHT22;540;49.448;8.612;2023-05-27T11:44:53;29.60;27.80
1107;DHT22;540;49.448;8.612;2023-05-27T11:47:23;29.30;28.10
1107;DHT22;540;49.448;8.612;2023-05-27T11:49:51;29.30;27.70
1107;DHT22;540;49.448;8.612;2023-05-27T11:52:19;29.80;27.40
1107;DHT22;540;49.448;8.612;2023-05-27T11:54:49;30.10;26.70
1107;DHT22;540;49.448;8.612;2023-05-27T11:57:24;29.80;27.20
1107;DHT22;540;49.448;8.612;2023-05-27T11:59:53;29.40;27.20
1107;DHT22;540;49.448;8.612;2023-05-27T12:02:21;29.30;27.60
1107;DHT22;540;49.448;8.612;2023-05-27T12:04:49;29.50;27.70
1107;DHT22;540;49.448;8.612;2023-05-27T12:07:17;29.30;27.40
1107;DHT22;540;49.448;8.612;2023-05-27T12:09:47;29.10;27.30
1107;DHT22;540;49.448;8.612;2023-05-27T12:12:18;28.80;27.70
1107;DHT22;540;49.448;8.612;2023-05-27T12:14:46;29.00;27.60
1107;DHT22;540;49.448;8.612;2023-05-27T12:17:15;29.30;27.60
1107;DHT22;540;49.448;8.612;2023-05-27T12:19:43;28.70;27.70
1107;DHT22;540;49.448;8.612;2023-05-27T12:22:11;28.60;28.20
1107;DHT22;540;49.448;8.612;2023-05-27T12:24:39;28.70;28.10
1107;DHT22;540;49.448;8.612;2023-05-27T12:27:07;28.40;28.70
1107;DHT22;540;49.448;8.612;2023-05-27T12:29:35;28.60;29.00
1107;DHT22;540;49.448;8.612;2023-05-27T12:32:03;28.40;28.90
1107;DHT22;540;49.448;8.612;2023-05-27T12:34:33;28.40;28.40
1107;DHT22;540;49.448;8.612;2023-05-27T12:37:00;28.70;27.70
1107;DHT22;540;49.448;8.612;2023-05-27T12:39:28;28.80;27.70
1107;DHT22;540;49.448;8.612;2023-05-27T12:41:57;29.10;27.40
1107;DHT22;540;49.448;8.612;2023-05-27T12:44:25;29.10;27.10
1107;DHT22;540;49.448;8.612;2023-05-27T12:46:52;29.10;28.00
1107;DHT22;540;49.448;8.612;2023-05-27T12:49:20;28.80;26.90
1107;DHT22;540;49.448;8.612;2023-05-27T12:51:49;28.60;28.10
1107;DHT22;540;49.448;8.612;2023-05-27T12:54:17;28.60;28.50
1107;DHT22;540;49.448;8.612;2023-05-27T12:56:45;28.30;27.90
1107;DHT22;540;49.448;8.612;2023-05-27T12:59:13;28.10;28.80
1107;DHT22;540;49.448;8.612;2023-05-27T13:01:40;28.30;28.90
1107;DHT22;540;49.448;8.612;2023-05-27T13:04:08;28.20;28.70
1107;DHT22;540;49.448;8.612;2023-05-27T13:06:36;28.00;29.10
1107;DHT22;540;49.448;8.612;2023-05-27T13:09:06;28.10;28.40
1107;DHT22;540;49.448;8.612;2023-05-27T13:11:34;27.80;29.10
1107;DHT22;540;49.448;8.612;2023-05-27T13:14:02;27.90;29.60
1107;DHT22;540;49.448;8.612;2023-05-27T13:16:30;27.50;29.80
1107;DHT22;540;49.448;8.612;2023-05-27T13:18:58;27.60;29.50
1107;DHT22;540;49.448;8.612;2023-05-27T13:21:25;27.50;28.40
1107;DHT22;540;49.448;8.612;2023-05-27T13:23:54;27.80;28.20
1107;DHT22;540;49.448;8.612;2023-05-27T13:26:23;27.80;27.70
1107;DHT22;540;49.448;8.612;2023-05-27T13:28:52;27.90;27.60
1107;DHT22;540;49.448;8.612;2023-05-27T13:31:20;27.90;28.70
1107;DHT22;540;49.448;8.612;2023-05-27T13:33:48;27.80;27.80
1107;DHT22;540;49.448;8.612;2023-05-27T13:36:16;27.80;28.40
1107;DHT22;540;49.448;8.612;2023-05-27T13:38:43;27.90;28.20
1107;DHT22;540;49.448;8.612;2023-05-27T13:41:11;28.00;28.00
1107;DHT22;540;49.448;8.612;2023-05-27T13:43:40;27.70;28.30
1107;DHT22;540;49.448;8.612;2023-05-27T13:46:08;27.80;28.70
1107;DHT22;540;49.448;8.612;2023-05-27T13:48:36;27.90;28.40
1107;DHT22;540;49.448;8.612;2023-05-27T13:51:04;28.00;27.80
1107;DHT22;540;49.448;8.612;2023-05-27T13:53:33;28.20;27.70
1107;DHT22;540;49.448;8.612;2023-05-27T13:56:01;28.30;27.40
1107;DHT22;540;49.448;8.612;2023-05-27T13:58:29;28.10;26.70
1107;DHT22;540;49.448;8.612;2023-05-27T14:00:58;27.80;27.30
1107;DHT22;540;49.448;8.612;2023-05-27T14:03:26;27.70;27.10
1107;DHT22;540;49.448;8.612;2023-05-27T14:05:54;27.60;26.10
1107;DHT22;540;49.448;8.612;2023-05-27T14:08:21;27.50;25.90
1107;DHT22;540;49.448;8.612;2023-05-27T14:10:50;27.50;25.80
1107;DHT22;540;49.448;8.612;2023-05-27T14:13:18;27.30;26.70
1107;DHT22;540;49.448;8.612;2023-05-27T14:15:45;27.20;26.00
1107;DHT22;540;49.448;8.612;2023-05-27T14:18:15;27.20;26.50
1107;DHT22;540;49.448;8.612;2023-05-27T14:20:43;27.30;27.00
1107;DHT22;540;49.448;8.612;2023-05-27T14:23:11;27.10;25.80
1107;DHT22;540;49.448;8.612;2023-05-27T14:25:40;27.30;26.20
1107;DHT22;540;49.448;8.612;2023-05-27T14:28:09;27.50;25.70
1107;DHT22;540;49.448;8.612;2023-05-27T14:30:37;27.60;25.50
1107;DHT22;540;49.448;8.612;2023-05-27T14:33:05;27.80;25.40
1107;DHT22;540;49.448;8.612;2023-05-27T14:35:36;27.60;24.80
1107;DHT22;540;49.448;8.612;2023-05-27T14:38:04;27.60;24.60
1107;DHT22;540;49.448;8.612;2023-05-27T14:40:32;27.40;24.80
1107;DHT22;540;49.448;8.612;2023-05-27T14:43:01;27.40;25.30
1107;DHT22;540;49.448;8.612;2023-05-27T14:45:28;27.30;24.80
1107;DHT22;540;49.448;8.612;2023-05-27T14:47:56;27.20;24.50
1107;DHT22;540;49.448;8.612;2023-05-27T14:50:24;27.10;24.00
1107;DHT22;540;49.448;8.612;2023-05-27T14:52:54;27.20;24.80
1107;DHT22;540;49.448;8.612;2023-05-27T14:55:21;27.20;25.00
1107;DHT22;540;49.448;8.612;2023-05-27T14:57:50;27.10;24.10
1107;DHT22;540;49.448;8.612;2023-05-27T15:00:19;27.10;24.00
1107;DHT22;540;49.448;8.612;2023-05-27T15:02:47;27.10;24.70
1107;DHT22;540;49.448;8.612;2023-05-27T15:05:15;27.20;25.90
1107;DHT22;540;49.448;8.612;2023-05-27T15:07:43;27.20;23.80
1107;DHT22;540;49.448;8.612;2023-05-27T15:10:12;27.10;23.60
1107;DHT22;540;49.448;8.612;2023-05-27T15:12:41;27.00;24.90
1107;DHT22;540;49.448;8.612;2023-05-27T15:15:11;26.90;24.90
1107;DHT22;540;49.448;8.612;2023-05-27T15:17:40;26.90;25.30
1107;DHT22;540;49.448;8.612;2023-05-27T15:20:11;26.90;25.60
1107;DHT22;540;49.448;8.612;2023-05-27T15:22:39;27.10;25.80
1107;DHT22;540;49.448;8.612;2023-05-27T15:25:07;26.90;26.10
1107;DHT22;540;49.448;8.612;2023-05-27T15:27:36;26.90;25.90
1107;DHT22;540;49.448;8.612;2023-05-27T15:30:05;26.80;24.90
1107;DHT22;540;49.448;8.612;2023-05-27T15:32:34;26.70;25.30
1107;DHT22;540;49.448;8.612;2023-05-27T15:35:03;26.90;24.70
1107;DHT22;540;49.448;8.612;2023-05-27T15:37:32;26.80;25.70
1107;DHT22;540;49.448;8.612;2023-05-27T15:40:01;26.80;26.20
1107;DHT22;540;49.448;8.612;2023-05-27T15:42:29;26.80;25.40
1107;DHT22;540;49.448;8.612;2023-05-27T15:44:58;26.70;26.70
1107;DHT22;540;49.448;8.612;2023-05-27T15:47:26;26.60;26.00
1107;DHT22;540;49.448;8.612;2023-05-27T15:49:54;26.50;25.70
1107;DHT22;540;49.448;8.612;2023-05-27T15:52:22;26.50;25.10
1107;DHT22;540;49.448;8.612;2023-05-27T15:54:49;26.50;25.30
1107;DHT22;540;49.448;8.612;2023-05-27T15:57:17;26.50;26.80
1107;DHT22;540;49.448;8.612;2023-05-27T15:59:45;26.50;26.80
1107;DHT22;540;49.448;8.612;2023-05-27T16:02:16;26.50;26.20
1107;DHT22;540;49.448;8.612;2023-05-27T16:04:44;26.50;26.00
1107;DHT22;540;49.448;8.612;2023-05-27T16:07:13;26.40;26.50
1107;DHT22;540;49.448;8.612;2023-05-27T16:09:41;26.30;26.40
1107;DHT22;540;49.448;8.612;2023-05-27T16:12:09;26.20;26.80
1107;DHT22;540;49.448;8.612;2023-05-27T16:14:37;26.30;27.90
1107;DHT22;540;49.448;8.612;2023-05-27T16:17:04;26.30;26.10
1107;DHT22;540;49.448;8.612;2023-05-27T16:19:34;26.30;26.10
1107;DHT22;540;49.448;8.612;2023-05-27T16:22:02;26.20;27.60
1107;DHT22;540;49.448;8.612;2023-05-27T16:24:30;26.20;27.00
1107;DHT22;540;49.448;8.612;2023-05-27T16:26:58;26.20;26.60